Saint-Hubert, Canada
Current Conditions -  °F | °C
As of 1:00 PM on Friday 28 Nov 2014 (Local Time) from CYHU Reporting Station
Light Snow Light Snow  
Wind Chill: 17°   Ceiling: 3000
Heat Index: 25°   Visibility: 8mi
Dew Point: 19°   Wind: 7mph
Humidity: 80%   Direction: 80°E
Pressure: 30.09"   Gusts: NA
Location:  45.5°N, 73.47°W
Report Text: CYHU 281800Z AUTO 08006KT 020V110 8SM -SN SCT023 BKN030 OVC040 M04/M07 A3009 RMK SLP189
Loading
Personal Weather Stations






























Interactive Weather Map New forecast layout! Learn more

10-Day Weather Forecast

Advertisements
Track Severe Weather on mobile